createdAt,value
2017-12-24T00:00:37.932Z,101171.12
2017-12-24T00:03:06.269Z,101154.35
2017-12-24T00:05:33.741Z,101167.90
2017-12-24T00:08:02.418Z,101155.48
2017-12-24T00:10:29.912Z,101153.48
2017-12-24T00:12:57.420Z,101144.99
2017-12-24T00:15:25.596Z,101148.39
2017-12-24T00:17:53.058Z,101151.35
2017-12-24T00:20:20.540Z,101151.86
2017-12-24T00:28:33.052Z,101130.00
2017-12-24T00:31:00.588Z,101127.63
2017-12-24T00:33:28.036Z,101114.45
2017-12-24T00:35:55.525Z,101124.25
2017-12-24T00:38:22.997Z,101119.66
2017-12-24T00:40:50.454Z,101119.66
2017-12-24T00:43:17.926Z,101126.16
2017-12-24T00:45:45.759Z,101128.00
2017-12-24T00:48:13.222Z,101131.34
2017-12-24T00:50:40.659Z,101138.61
2017-12-24T00:53:08.134Z,101129.89
2017-12-24T00:55:35.599Z,101129.17
2017-12-24T00:58:03.088Z,101132.67
2017-12-24T01:00:31.417Z,101138.13
2017-12-24T01:02:59.773Z,101132.28
2017-12-24T01:05:27.256Z,101141.42
2017-12-24T01:07:54.735Z,101139.81
2017-12-24T01:10:22.221Z,101138.46
2017-12-24T01:12:49.675Z,101132.52
2017-12-24T01:15:17.118Z,101127.49
2017-12-24T01:17:45.186Z,101121.67
2017-12-24T01:20:12.616Z,101120.47
2017-12-24T01:22:45.196Z,101138.28
2017-12-24T01:25:13.657Z,101135.22
2017-12-24T01:27:41.234Z,101142.36
2017-12-24T01:30:08.709Z,101130.39
2017-12-24T01:32:36.185Z,101147.77
2017-12-24T01:35:03.616Z,101147.64
2017-12-24T01:37:31.069Z,101143.56
2017-12-24T01:39:58.540Z,101148.74
2017-12-24T01:42:26.433Z,101132.95
2017-12-24T01:44:53.875Z,101124.05
2017-12-24T01:47:21.399Z,101146.42
2017-12-24T01:49:48.884Z,101155.58
2017-12-24T01:52:16.354Z,101162.09
2017-12-24T01:54:43.866Z,101151.68
2017-12-24T01:57:11.354Z,101151.75
2017-12-24T01:59:38.854Z,101140.63
2017-12-24T02:02:06.936Z,101152.92
2017-12-24T02:04:34.487Z,101151.94
2017-12-24T02:07:02.060Z,101162.13
2017-12-24T02:09:29.563Z,101155.25
2017-12-24T02:11:57.105Z,101137.96
2017-12-24T02:14:24.581Z,101149.74
2017-12-24T02:16:52.105Z,101150.94
2017-12-24T02:19:19.558Z,101142.58
2017-12-24T02:21:47.048Z,101145.51
2017-12-24T02:24:14.567Z,101144.81
2017-12-24T02:26:42.052Z,101146.42
2017-12-24T02:29:09.501Z,101145.08
2017-12-24T02:31:36.929Z,101155.43
2017-12-24T02:34:04.394Z,101140.84
2017-12-24T02:36:31.864Z,101140.99
2017-12-24T02:38:59.300Z,101136.09
2017-12-24T02:41:26.732Z,101149.46
2017-12-24T02:43:54.221Z,101141.12
2017-12-24T02:46:21.672Z,101146.55
2017-12-24T02:48:49.100Z,101137.68
2017-12-24T02:51:16.532Z,101132.06
2017-12-24T02:53:45.647Z,101133.02
2017-12-24T02:56:13.141Z,101126.38
2017-12-24T03:01:16.486Z,101121.92
2017-12-24T03:03:43.915Z,101119.14
2017-12-24T03:06:11.382Z,101118.07
2017-12-24T03:08:39.663Z,101110.63
2017-12-24T03:11:07.126Z,101112.59
2017-12-24T03:13:34.702Z,101123.22
2017-12-24T03:16:02.122Z,101105.70
2017-12-24T03:18:29.866Z,101112.33
2017-12-24T03:20:57.306Z,101102.89
2017-12-24T03:23:24.739Z,101106.22
2017-12-24T03:25:52.192Z,101110.85
2017-12-24T03:28:19.686Z,101103.94
2017-12-24T03:30:47.148Z,101091.78
2017-12-24T03:33:14.638Z,101089.00
2017-12-24T03:35:42.332Z,101074.77
2017-12-24T03:38:09.761Z,101078.88
2017-12-24T03:40:37.215Z,101066.97
2017-12-24T03:43:05.351Z,101063.09
2017-12-24T03:45:32.810Z,101064.44
2017-12-24T03:48:00.503Z,101069.47
2017-12-24T03:50:27.933Z,101065.89
2017-12-24T03:52:55.381Z,101056.59
2017-12-24T03:55:22.983Z,101052.10
2017-12-24T03:57:50.423Z,101057.52
2017-12-24T04:00:18.616Z,101044.53
2017-12-24T04:02:47.439Z,101037.63
2017-12-24T04:05:15.228Z,101040.02
2017-12-24T04:07:42.659Z,101038.46
2017-12-24T04:10:10.094Z,101027.02
2017-12-24T04:12:37.556Z,101033.27
2017-12-24T04:15:05.005Z,101044.66
2017-12-24T04:17:32.701Z,101044.66
2017-12-24T04:20:00.153Z,101052.03
2017-12-24T04:22:27.661Z,101061.74
2017-12-24T04:24:55.112Z,101057.52
2017-12-24T04:27:22.548Z,101052.85
2017-12-24T04:29:50.270Z,101038.01
2017-12-24T04:32:17.808Z,101037.22
2017-12-24T04:34:45.255Z,101047.24
2017-12-24T04:37:12.701Z,101045.77
2017-12-24T04:39:40.130Z,101045.61
2017-12-24T04:42:07.591Z,101039.24
2017-12-24T04:44:35.047Z,101047.20
2017-12-24T04:47:02.736Z,101038.83
2017-12-24T04:49:30.190Z,101039.39
2017-12-24T04:51:57.714Z,101029.17
2017-12-24T04:54:25.190Z,101031.16
2017-12-24T04:56:52.635Z,101035.27
2017-12-24T04:59:20.084Z,101037.66
2017-12-24T05:01:52.583Z,101026.70
2017-12-24T05:04:20.028Z,101033.06
2017-12-24T05:06:47.498Z,101026.57
2017-12-24T05:09:15.819Z,101021.27
2017-12-24T05:11:43.264Z,101028.12
2017-12-24T05:14:10.802Z,101015.97
2017-12-24T05:16:38.239Z,101018.08
2017-12-24T05:19:05.666Z,101012.52
2017-12-24T05:21:33.132Z,100998.45
2017-12-24T05:24:00.563Z,101010.66
2017-12-24T05:26:28.021Z,101007.60
2017-12-24T05:28:55.442Z,101004.92
2017-12-24T05:31:22.933Z,100996.08
2017-12-24T05:33:50.403Z,101006.14
2017-12-24T05:36:17.835Z,101000.84
2017-12-24T05:38:45.313Z,101016.91
2017-12-24T05:41:12.741Z,101006.42
2017-12-24T05:43:40.261Z,101010.69
2017-12-24T05:46:08.712Z,101004.30
2017-12-24T05:48:36.154Z,101015.21
2017-12-24T05:51:03.652Z,101006.59
2017-12-24T05:53:31.110Z,101010.94
2017-12-24T05:55:58.568Z,101018.38
2017-12-24T05:58:26.017Z,101013.23
2017-12-24T06:00:53.511Z,101010.16
2017-12-24T06:03:20.960Z,101012.92
2017-12-24T06:05:48.408Z,101022.23
2017-12-24T06:08:15.873Z,101025.16
2017-12-24T06:10:43.318Z,101022.51
2017-12-24T06:13:10.742Z,101020.80
2017-12-24T06:15:38.475Z,101029.31
2017-12-24T06:18:06.820Z,101024.16
2017-12-24T06:20:34.270Z,101024.41
2017-12-24T06:23:01.746Z,101032.11
2017-12-24T06:25:29.210Z,101024.95
2017-12-24T06:27:56.665Z,101032.63
2017-12-24T06:30:24.192Z,101019.36
2017-12-24T06:32:51.918Z,101020.84
2017-12-24T06:35:19.351Z,101016.73
2017-12-24T06:37:46.801Z,101019.92
2017-12-24T06:40:14.744Z,101006.53
2017-12-24T06:42:42.269Z,101023.09
2017-12-24T06:45:10.462Z,101020.88
2017-12-24T06:47:37.903Z,101023.42
2017-12-24T06:50:05.622Z,101021.45
2017-12-24T06:52:33.059Z,101025.44
2017-12-24T06:55:00.515Z,101030.19
2017-12-24T06:57:27.995Z,101040.79
2017-12-24T06:59:55.432Z,101046.22
2017-12-24T07:02:23.158Z,101043.72
2017-12-24T07:04:50.626Z,101049.80
2017-12-24T07:07:18.083Z,101040.09
2017-12-24T07:09:45.567Z,101049.81
2017-12-24T07:12:13.023Z,101038.56
2017-12-24T07:14:40.463Z,101040.66
2017-12-24T07:17:07.896Z,101041.73
2017-12-24T07:19:35.579Z,101051.85
2017-12-24T07:22:03.027Z,101055.42
2017-12-24T07:24:30.463Z,101041.27
2017-12-24T07:26:57.913Z,101041.38
2017-12-24T07:29:25.344Z,101058.63
2017-12-24T07:31:53.155Z,101053.97
2017-12-24T07:34:20.602Z,101056.90
2017-12-24T07:36:48.036Z,101049.75
2017-12-24T07:39:15.470Z,101052.55
2017-12-24T07:41:43.842Z,101057.06
2017-12-24T07:44:11.278Z,101055.20
2017-12-24T07:46:39.348Z,101059.05
2017-12-24T07:49:07.700Z,101061.91
2017-12-24T07:51:35.364Z,101058.23
2017-12-24T07:54:03.790Z,101066.83
2017-12-24T07:56:34.276Z,101062.86
2017-12-24T07:59:01.720Z,101063.25
2017-12-24T08:01:29.200Z,101066.03
2017-12-24T08:03:57.689Z,101063.41
2017-12-24T08:06:25.131Z,101066.34
2017-12-24T08:08:53.117Z,101065.82
2017-12-24T08:11:20.581Z,101075.11
2017-12-24T08:13:48.129Z,101074.17
2017-12-24T08:16:15.640Z,101071.50
2017-12-24T08:18:43.172Z,101078.41
2017-12-24T08:21:10.906Z,101074.04
2017-12-24T08:23:38.352Z,101072.45
2017-12-24T08:26:05.819Z,101077.61
2017-12-24T08:28:33.293Z,101077.89
2017-12-24T08:31:00.774Z,101065.93
2017-12-24T08:33:28.271Z,101074.17
2017-12-24T08:35:55.990Z,101072.73
2017-12-24T08:38:23.439Z,101074.72
2017-12-24T08:40:50.869Z,101075.64
2017-12-24T08:43:18.351Z,101074.95
2017-12-24T08:45:45.805Z,101075.66
2017-12-24T08:48:15.353Z,101077.13
2017-12-24T08:50:42.860Z,101075.27
2017-12-24T08:53:10.308Z,101082.58
2017-12-24T08:55:37.800Z,101085.08
2017-12-24T08:58:05.234Z,101090.41
2017-12-24T09:00:32.710Z,101085.89
2017-12-24T09:03:00.185Z,101091.06
2017-12-24T09:05:28.009Z,101093.59
2017-12-24T09:07:55.509Z,101080.66
2017-12-24T09:10:23.013Z,101087.19
2017-12-24T09:12:50.593Z,101085.84
2017-12-24T09:15:18.080Z,101087.30
2017-12-24T09:17:46.280Z,101078.77
2017-12-24T09:20:13.956Z,101076.64
2017-12-24T09:22:41.572Z,101077.29
2017-12-24T09:25:09.074Z,101068.94
2017-12-24T09:27:36.527Z,101079.70
2017-12-24T09:30:05.864Z,101068.27
2017-12-24T09:32:33.347Z,101055.80
2017-12-24T09:35:00.925Z,101060.06
2017-12-24T09:37:28.430Z,101057.91
2017-12-24T09:39:58.231Z,101041.48
2017-12-24T09:42:27.941Z,101052.09
2017-12-24T09:44:56.212Z,101058.33
2017-12-24T09:47:23.961Z,101045.08
2017-12-24T09:49:51.402Z,101039.22
2017-12-24T09:52:18.856Z,101047.89
2017-12-24T09:54:46.323Z,101031.02
2017-12-24T09:57:13.803Z,101031.58
2017-12-24T09:59:41.282Z,101033.16
2017-12-24T10:02:08.798Z,101030.27
2017-12-24T10:10:16.628Z,101019.65
2017-12-24T10:12:44.189Z,101019.55
2017-12-24T10:15:11.649Z,101012.38
2017-12-24T10:17:39.111Z,101015.86
2017-12-24T10:20:06.632Z,101011.20
2017-12-24T10:22:34.092Z,101008.41
2017-12-24T10:25:01.619Z,100988.12
2017-12-24T10:27:29.071Z,100990.91
2017-12-24T10:29:56.529Z,100980.67
2017-12-24T10:32:23.972Z,100989.45
2017-12-24T10:34:51.445Z,100980.40
2017-12-24T10:37:18.955Z,100994.24
2017-12-24T10:39:46.433Z,100986.28
2017-12-24T10:42:13.921Z,100986.39
2017-12-24T10:44:41.395Z,100991.03
2017-12-24T10:47:08.815Z,100993.17
2017-12-24T10:49:36.860Z,100986.27
2017-12-24T10:52:04.350Z,100989.48
2017-12-24T10:54:31.843Z,100977.91
2017-12-24T10:56:59.309Z,100979.78
2017-12-24T10:59:26.752Z,100978.87
2017-12-24T11:01:54.315Z,100979.24
2017-12-24T11:04:21.845Z,100981.27
2017-12-24T11:06:49.350Z,100977.02
2017-12-24T11:09:16.842Z,100977.16
2017-12-24T11:11:45.386Z,100973.03
2017-12-24T11:14:12.882Z,100968.92
2017-12-24T11:16:40.379Z,100969.05
2017-12-24T11:19:07.832Z,100975.41
2017-12-24T11:21:40.344Z,100967.58
2017-12-24T11:24:08.055Z,100972.61
2017-12-24T11:26:35.504Z,100961.85
2017-12-24T11:29:03.005Z,100968.26
2017-12-24T11:31:30.516Z,100961.74
2017-12-24T11:33:59.984Z,100955.87
2017-12-24T11:36:27.513Z,100962.11
2017-12-24T11:38:55.618Z,100953.09
2017-12-24T11:41:28.233Z,100966.92
2017-12-24T11:43:55.722Z,100975.55
2017-12-24T11:46:23.244Z,100960.42
2017-12-24T11:48:51.618Z,100957.09
2017-12-24T11:51:19.697Z,100945.01
2017-12-24T11:53:47.286Z,100949.53
2017-12-24T11:56:14.756Z,100947.38
2017-12-24T11:58:42.282Z,100944.47
2017-12-24T12:01:09.795Z,100940.49
2017-12-24T12:03:37.445Z,100938.89
2017-12-24T12:06:05.204Z,100939.03
2017-12-24T12:08:32.730Z,100930.80
2017-12-24T12:11:00.287Z,100921.48
2017-12-24T12:13:28.433Z,100930.64
2017-12-24T12:15:55.900Z,100935.03
2017-12-24T12:18:24.264Z,100912.20
2017-12-24T12:20:51.773Z,100919.77
2017-12-24T12:23:19.663Z,100911.52
2017-12-24T12:25:47.134Z,100905.28
2017-12-24T12:28:14.731Z,100911.13
2017-12-24T12:30:42.237Z,100914.05
2017-12-24T12:33:14.872Z,100910.61
2017-12-24T12:35:42.516Z,100915.00
2017-12-24T12:38:10.027Z,100913.80
2017-12-24T12:40:37.584Z,100903.42
2017-12-24T12:43:05.109Z,100909.55
2017-12-24T12:45:32.599Z,100901.45
2017-12-24T12:48:00.329Z,100904.89
2017-12-24T12:50:28.653Z,100902.37
2017-12-24T12:52:56.157Z,100894.14
2017-12-24T12:55:23.851Z,100903.57
2017-12-24T12:57:51.411Z,100899.75
2017-12-24T13:00:18.905Z,100893.52
2017-12-24T13:02:46.506Z,100915.17
2017-12-24T13:05:14.159Z,100909.03
2017-12-24T13:07:41.690Z,100919.14
2017-12-24T13:10:09.411Z,100907.70
2017-12-24T13:12:37.153Z,100912.64
2017-12-24T13:15:04.681Z,100904.27
2017-12-24T13:17:32.140Z,100904.41
2017-12-24T13:19:59.740Z,100902.95
2017-12-24T13:22:27.864Z,100894.84
2017-12-24T13:24:55.593Z,100886.45
2017-12-24T13:27:23.087Z,100885.27
2017-12-24T13:29:51.300Z,100881.02
2017-12-24T13:32:18.972Z,100887.42
2017-12-24T13:34:46.472Z,100876.27
2017-12-24T13:37:13.981Z,100870.67
2017-12-24T13:39:41.408Z,100876.39
2017-12-24T13:42:08.990Z,100855.02
2017-12-24T13:44:36.477Z,100863.77
2017-12-24T13:47:04.053Z,100857.13
2017-12-24T13:49:31.445Z,100853.95
2017-12-24T13:51:58.894Z,100854.63
2017-12-24T13:54:26.370Z,100856.77
2017-12-24T13:56:53.872Z,100864.59
2017-12-24T13:59:22.627Z,100854.11
2017-12-24T14:01:51.920Z,100855.44
2017-12-24T14:04:19.421Z,100851.69
2017-12-24T14:06:46.901Z,100842.03
2017-12-24T14:09:14.372Z,100844.55
2017-12-24T14:11:41.872Z,100847.97
2017-12-24T14:14:09.393Z,100851.83
2017-12-24T14:16:36.840Z,100850.26
2017-12-24T14:19:04.317Z,100849.58
2017-12-24T14:21:31.799Z,100851.18
2017-12-24T14:23:59.374Z,100854.48
2017-12-24T14:26:26.839Z,100851.05
2017-12-24T14:28:54.302Z,100843.62
2017-12-24T14:31:21.740Z,100846.38
2017-12-24T14:33:49.198Z,100843.48
2017-12-24T14:36:16.736Z,100846.00
2017-12-24T14:38:44.299Z,100848.66
2017-12-24T14:41:11.824Z,100839.73
2017-12-24T14:43:39.469Z,100853.01
2017-12-24T14:46:06.970Z,100846.64
2017-12-24T14:48:34.415Z,100845.04
2017-12-24T14:51:01.878Z,100845.45
2017-12-24T14:53:29.378Z,100838.41
2017-12-24T14:55:56.801Z,100842.66
2017-12-24T14:58:24.295Z,100831.13
2017-12-24T15:00:51.826Z,100843.08
2017-12-24T15:03:19.295Z,100840.55
2017-12-24T15:05:46.845Z,100844.13
2017-12-24T15:08:14.340Z,100848.78
2017-12-24T15:10:41.760Z,100841.87
2017-12-24T15:13:28.455Z,100848.36
2017-12-24T15:15:55.868Z,100843.71
2017-12-24T15:18:23.326Z,100838.17
2017-12-24T15:20:50.773Z,100823.02
2017-12-24T15:23:18.896Z,100826.59
2017-12-24T15:25:46.448Z,100831.52
2017-12-24T15:28:13.945Z,100835.64
2017-12-24T15:30:41.404Z,100839.36
2017-12-24T15:33:09.180Z,100844.13
2017-12-24T15:35:36.646Z,100859.65
2017-12-24T15:38:04.105Z,100848.52
2017-12-24T15:40:31.556Z,100853.96
2017-12-24T15:42:59.060Z,100851.56
2017-12-24T15:45:26.589Z,100848.24
2017-12-24T15:47:54.043Z,100840.56
2017-12-24T15:50:21.487Z,100847.33
2017-12-24T15:52:48.965Z,100837.23
2017-12-24T15:55:16.400Z,100830.34
2017-12-24T15:57:43.903Z,100834.98
2017-12-24T16:00:12.113Z,100832.32
2017-12-24T16:02:39.563Z,100835.38
2017-12-24T16:05:07.087Z,100823.44
2017-12-24T16:07:34.551Z,100821.29
2017-12-24T16:10:02.030Z,100825.95
2017-12-24T16:12:29.499Z,100825.67
2017-12-24T16:14:56.932Z,100828.73
2017-12-24T16:17:24.416Z,100829.52
2017-12-24T16:19:51.929Z,100822.09
2017-12-24T16:22:19.404Z,100828.88
2017-12-24T16:24:46.880Z,100832.72
2017-12-24T16:27:14.329Z,100823.42
2017-12-24T16:29:41.818Z,100830.57
2017-12-24T16:32:09.437Z,100832.44
2017-12-24T16:34:36.927Z,100833.63
2017-12-24T16:37:04.373Z,100831.38
2017-12-24T16:39:31.847Z,100825.27
2017-12-24T16:41:59.377Z,100821.68
2017-12-24T16:44:26.878Z,100826.98
2017-12-24T16:46:54.333Z,100832.17
2017-12-24T16:49:21.832Z,100825.40
2017-12-24T16:51:49.321Z,100816.64
2017-12-24T16:54:16.772Z,100816.78
2017-12-24T16:56:44.223Z,100818.23
2017-12-24T16:59:11.656Z,100823.79
2017-12-24T17:01:39.193Z,100820.21
2017-12-24T17:04:06.662Z,100820.76
2017-12-24T17:06:34.136Z,100812.11
2017-12-24T17:09:01.572Z,100821.53
2017-12-24T17:11:29.072Z,100813.44
2017-12-24T17:13:56.524Z,100809.86
2017-12-24T17:16:24.071Z,100823.67
2017-12-24T17:18:51.552Z,100816.09
2017-12-24T17:21:19.909Z,100803.50
2017-12-24T17:23:47.513Z,100817.17
2017-12-24T17:26:14.968Z,100800.70
2017-12-24T17:28:42.917Z,100794.72
2017-12-24T17:31:10.372Z,100793.67
2017-12-24T17:33:43.646Z,100794.59
2017-12-24T17:36:11.219Z,100798.70
2017-12-24T17:38:38.773Z,100800.44
2017-12-24T17:41:06.317Z,100791.56
2017-12-24T17:43:34.429Z,100791.56
2017-12-24T17:46:01.936Z,100787.30
2017-12-24T17:48:29.521Z,100789.03
2017-12-24T17:50:57.172Z,100783.59
2017-12-24T17:53:25.426Z,100776.83
2017-12-24T17:55:53.861Z,100777.33
2017-12-24T17:58:21.384Z,100780.66
2017-12-24T18:00:50.697Z,100792.20
2017-12-24T18:03:18.218Z,100787.30
2017-12-24T18:05:45.686Z,100785.19
2017-12-24T18:08:14.586Z,100803.50
2017-12-24T18:10:42.296Z,100794.58
2017-12-24T18:13:09.813Z,100787.84
2017-12-24T18:15:37.589Z,100794.58
2017-12-24T18:18:05.249Z,100800.30
2017-12-24T18:20:33.697Z,100801.77
2017-12-24T18:23:01.209Z,100803.77
2017-12-24T18:25:28.699Z,100809.86
2017-12-24T18:27:58.438Z,100813.98
2017-12-24T18:30:25.950Z,100810.92
2017-12-24T18:32:53.464Z,100805.48
2017-12-24T18:35:21.687Z,100820.77
2017-12-24T18:37:49.164Z,100815.31
2017-12-24T18:40:16.630Z,100807.86
2017-12-24T18:42:49.747Z,100813.72
2017-12-24T18:45:17.209Z,100805.63
2017-12-24T18:47:45.661Z,100806.95
2017-12-24T18:50:13.150Z,100824.08
2017-12-24T18:52:45.718Z,100825.81
2017-12-24T18:55:13.176Z,100825.14
2017-12-24T18:57:40.727Z,100832.61
2017-12-24T19:00:08.258Z,100841.75
2017-12-24T19:02:35.727Z,100831.27
2017-12-24T19:05:03.209Z,100829.13
2017-12-24T19:07:30.866Z,100833.25
2017-12-24T19:09:58.488Z,100836.45
2017-12-24T19:12:26.080Z,100841.75
2017-12-24T19:14:53.801Z,100833.93
2017-12-24T19:17:21.292Z,100844.41
2017-12-24T19:19:48.791Z,100838.05
2017-12-24T19:22:16.282Z,100844.14
2017-12-24T19:24:43.751Z,100835.25
2017-12-24T19:27:11.491Z,100841.76
2017-12-24T19:29:38.933Z,100829.81
2017-12-24T19:32:06.404Z,100829.27
2017-12-24T19:34:33.874Z,100826.63
2017-12-24T19:37:01.335Z,100832.06
2017-12-24T19:39:28.906Z,100823.44
2017-12-24T19:41:56.441Z,100834.45
2017-12-24T19:44:23.930Z,100820.66
2017-12-24T19:46:51.388Z,100829.02
2017-12-24T19:49:18.896Z,100833.66
2017-12-24T19:51:46.342Z,100815.86
2017-12-24T19:54:13.906Z,100819.06
2017-12-24T19:56:41.396Z,100811.23
2017-12-24T19:59:09.605Z,100814.02
2017-12-24T20:01:42.089Z,100814.80
2017-12-24T20:04:09.545Z,100815.20
2017-12-24T20:06:37.034Z,100813.88
2017-12-24T20:09:04.517Z,100812.55
2017-12-24T20:11:31.985Z,100817.45
2017-12-24T20:13:59.489Z,100808.98
2017-12-24T20:16:26.962Z,100814.94
2017-12-24T20:18:54.427Z,100814.01
2017-12-24T20:21:21.861Z,100813.61
2017-12-24T20:23:49.379Z,100809.21
2017-12-24T20:26:16.827Z,100816.53
2017-12-24T20:28:45.756Z,100815.47
2017-12-24T20:31:13.224Z,100804.17
2017-12-24T20:33:41.036Z,100808.44
2017-12-24T20:36:08.452Z,100824.22
2017-12-24T20:38:35.935Z,100807.88
2017-12-24T20:41:03.386Z,100806.32
2017-12-24T20:43:30.872Z,100808.03
2017-12-24T20:45:58.331Z,100805.23
2017-12-24T20:48:25.818Z,100814.15
2017-12-24T20:50:53.323Z,100801.38
2017-12-24T20:53:20.805Z,100803.53
2017-12-24T20:55:48.409Z,100799.00
2017-12-24T20:58:15.865Z,100794.50
2017-12-24T21:00:43.342Z,100789.70
2017-12-24T21:03:10.776Z,100787.59
2017-12-24T21:05:38.215Z,100793.83
2017-12-24T21:08:05.673Z,100807.77
2017-12-24T21:10:33.151Z,100793.17
2017-12-24T21:13:00.677Z,100796.21
2017-12-24T21:15:28.120Z,100801.01
2017-12-24T21:17:55.630Z,100795.15
2017-12-24T21:20:23.149Z,100796.06
2017-12-24T21:22:50.661Z,100797.26
2017-12-24T21:25:18.108Z,100791.84
2017-12-24T21:27:45.612Z,100791.84
2017-12-24T21:30:13.168Z,100798.73
2017-12-24T21:32:40.617Z,100804.17
2017-12-24T21:35:08.068Z,100796.75
2017-12-24T21:37:35.512Z,100809.76
2017-12-24T21:40:02.993Z,100801.52
2017-12-24T21:42:30.449Z,100796.76
2017-12-24T21:44:57.892Z,100798.22
2017-12-24T21:47:25.361Z,100793.41
2017-12-24T21:49:52.878Z,100795.70
2017-12-24T21:52:20.373Z,100795.28
2017-12-24T21:54:47.900Z,100793.16
2017-12-24T21:57:15.361Z,100805.89
2017-12-24T21:59:42.851Z,100790.09
2017-12-24T22:02:10.329Z,100795.81
2017-12-24T22:04:37.783Z,100795.69
2017-12-24T22:07:05.329Z,100806.95
2017-12-24T22:09:32.777Z,100793.53
2017-12-24T22:12:00.314Z,100806.16
2017-12-24T22:14:27.810Z,100803.89
2017-12-24T22:16:55.252Z,100795.00
2017-12-24T22:19:22.776Z,100786.90
2017-12-24T22:21:50.317Z,100793.67
2017-12-24T22:24:17.813Z,100798.20
2017-12-24T22:26:45.265Z,100804.97
2017-12-24T22:29:13.428Z,100803.89
2017-12-24T22:31:46.972Z,100797.94
2017-12-24T22:34:14.469Z,100797.80
2017-12-24T22:36:41.927Z,100798.47
2017-12-24T22:39:09.358Z,100795.41
2017-12-24T22:41:36.872Z,100789.69
2017-12-24T22:44:04.330Z,100805.11
2017-12-24T22:46:31.776Z,100798.57
2017-12-24T22:48:59.284Z,100798.33
2017-12-24T22:51:26.782Z,100797.13
2017-12-24T22:53:54.247Z,100792.75
2017-12-24T22:56:21.689Z,100796.59
2017-12-24T22:58:50.026Z,100801.12
2017-12-24T23:01:17.523Z,100804.57
2017-12-24T23:03:44.972Z,100810.94
2017-12-24T23:06:12.471Z,100811.34
2017-12-24T23:08:39.925Z,100819.17
2017-12-24T23:11:08.240Z,100815.59
2017-12-24T23:13:35.691Z,100822.73
2017-12-24T23:16:03.151Z,100825.39
2017-12-24T23:18:30.640Z,100830.19
2017-12-24T23:20:58.116Z,100836.27
2017-12-24T23:23:25.628Z,100835.22
2017-12-24T23:25:53.113Z,100833.08
2017-12-24T23:28:20.915Z,100832.16
2017-12-24T23:30:48.461Z,100837.73
2017-12-24T23:33:15.913Z,100837.88
2017-12-24T23:35:43.393Z,100829.09
2017-12-24T23:38:10.877Z,100827.77
2017-12-24T23:40:38.312Z,100831.09
2017-12-24T23:43:05.748Z,100828.83
2017-12-24T23:45:33.213Z,100832.14
2017-12-24T23:48:00.668Z,100827.37
2017-12-24T23:50:28.113Z,100834.02
2017-12-24T23:52:55.576Z,100824.45
2017-12-24T23:55:23.042Z,100823.91
2017-12-24T23:57:50.732Z,100827.66
